createdAt,value
2018-05-29T00:00:13.950Z,0.00
2018-05-29T00:01:14.179Z,0.00
2018-05-29T00:02:14.413Z,0.00
2018-05-29T00:03:14.650Z,0.00
2018-05-29T00:04:14.874Z,0.00
2018-05-29T00:05:15.111Z,0.00
2018-05-29T00:06:15.336Z,0.00
2018-05-29T00:07:15.573Z,0.00
2018-05-29T00:08:15.817Z,0.00
2018-05-29T00:09:16.038Z,0.00
2018-05-29T00:10:16.326Z,0.00
2018-05-29T00:11:16.500Z,0.00
2018-05-29T00:12:16.731Z,0.00
2018-05-29T00:13:16.972Z,0.00
2018-05-29T00:14:17.203Z,0.00
2018-05-29T00:15:17.425Z,0.00
2018-05-29T00:16:17.654Z,0.00
2018-05-29T00:17:17.886Z,0.00
2018-05-29T00:18:18.114Z,0.00
2018-05-29T00:19:18.355Z,0.00
2018-05-29T00:20:18.579Z,0.00
2018-05-29T00:21:18.810Z,0.00
2018-05-29T00:22:19.048Z,0.00
2018-05-29T00:23:19.280Z,0.00
2018-05-29T00:24:19.510Z,0.00
2018-05-29T00:25:19.741Z,0.00
2018-05-29T00:26:19.971Z,0.00
2018-05-29T00:27:20.207Z,0.00
2018-05-29T00:28:20.447Z,0.00
2018-05-29T00:29:20.671Z,0.00
2018-05-29T00:30:20.904Z,0.00
2018-05-29T00:31:21.130Z,0.00
2018-05-29T00:32:21.365Z,0.00
2018-05-29T00:33:21.594Z,0.00
2018-05-29T00:34:21.832Z,0.00
2018-05-29T00:35:22.070Z,0.00
2018-05-29T00:36:22.297Z,0.00
2018-05-29T00:37:22.531Z,0.00
2018-05-29T00:38:22.769Z,0.00
2018-05-29T00:39:22.989Z,0.00
2018-05-29T00:40:23.227Z,0.00
2018-05-29T00:41:23.468Z,0.00
2018-05-29T00:42:23.699Z,0.00
2018-05-29T00:43:23.928Z,0.00
2018-05-29T00:44:24.164Z,0.00
2018-05-29T00:45:24.396Z,0.00
2018-05-29T00:46:24.629Z,0.00
2018-05-29T00:47:24.864Z,0.00
2018-05-29T00:48:25.094Z,0.00
2018-05-29T00:49:25.315Z,0.00
2018-05-29T00:50:25.545Z,0.00
2018-05-29T00:51:25.776Z,0.00
2018-05-29T00:52:26.009Z,0.00
2018-05-29T00:53:26.248Z,0.00
2018-05-29T00:54:26.475Z,0.00
2018-05-29T00:55:26.707Z,0.00
2018-05-29T00:56:26.941Z,0.00
2018-05-29T00:57:27.172Z,0.00
2018-05-29T00:58:27.406Z,0.00
2018-05-29T00:59:27.644Z,0.00
2018-05-29T01:00:27.873Z,0.00
2018-05-29T01:01:28.102Z,0.00
2018-05-29T01:02:28.333Z,0.00
2018-05-29T01:03:28.566Z,0.00
2018-05-29T01:04:28.803Z,0.00
2018-05-29T01:05:29.031Z,0.00
2018-05-29T01:06:29.265Z,0.00
2018-05-29T01:07:29.497Z,0.00
2018-05-29T01:08:29.729Z,0.00
2018-05-29T01:09:29.961Z,0.00
2018-05-29T01:10:30.199Z,0.00
2018-05-29T01:11:30.431Z,0.00
2018-05-29T01:12:30.673Z,0.00
2018-05-29T01:13:30.891Z,0.00
2018-05-29T01:14:31.125Z,0.00
2018-05-29T01:15:31.358Z,0.00
2018-05-29T01:16:31.588Z,0.00
2018-05-29T01:17:31.823Z,0.00
2018-05-29T01:18:32.049Z,0.00
2018-05-29T01:19:32.283Z,0.00
2018-05-29T01:20:32.516Z,0.00
2018-05-29T01:21:32.749Z,0.00
2018-05-29T01:22:32.991Z,0.00
2018-05-29T01:23:33.200Z,0.00
2018-05-29T01:24:33.449Z,0.00
2018-05-29T01:25:33.682Z,0.00
2018-05-29T01:26:33.914Z,0.00
2018-05-29T01:27:34.144Z,0.00
2018-05-29T01:28:34.374Z,0.00
2018-05-29T01:29:34.601Z,0.00
2018-05-29T01:30:34.829Z,0.00
2018-05-29T01:31:35.071Z,0.00
2018-05-29T01:32:35.309Z,0.00
2018-05-29T01:33:35.527Z,0.00
2018-05-29T01:34:35.768Z,0.00
2018-05-29T01:35:36.032Z,0.00
2018-05-29T01:36:36.245Z,0.00
2018-05-29T01:37:36.457Z,0.00
2018-05-29T01:38:36.682Z,0.00
2018-05-29T01:39:36.924Z,0.00
2018-05-29T01:40:37.151Z,0.00
2018-05-29T01:41:37.385Z,0.00
2018-05-29T01:42:37.616Z,0.00
2018-05-29T01:43:37.855Z,0.00
2018-05-29T01:44:38.086Z,0.00
2018-05-29T01:45:38.316Z,0.00
2018-05-29T01:46:38.554Z,0.00
2018-05-29T01:47:38.777Z,0.00
2018-05-29T01:48:39.015Z,0.00
2018-05-29T01:49:39.244Z,0.00
2018-05-29T01:50:39.469Z,0.00
2018-05-29T01:51:39.707Z,0.00
2018-05-29T01:52:39.939Z,0.00
2018-05-29T01:53:40.169Z,0.00
2018-05-29T01:54:40.400Z,0.00
2018-05-29T01:55:40.639Z,0.00
2018-05-29T01:56:40.865Z,0.00
2018-05-29T01:57:41.096Z,0.00
2018-05-29T01:58:41.333Z,0.00
2018-05-29T01:59:41.577Z,0.00
2018-05-29T02:00:41.799Z,0.00
2018-05-29T02:01:42.025Z,0.00
2018-05-29T02:02:42.258Z,0.00
2018-05-29T02:03:42.488Z,0.00
2018-05-29T02:04:42.721Z,0.00
2018-05-29T02:05:42.952Z,0.00
2018-05-29T02:06:43.184Z,0.00
2018-05-29T02:07:43.415Z,0.00
2018-05-29T02:08:43.652Z,0.00
2018-05-29T02:09:43.882Z,0.00
2018-05-29T02:10:44.112Z,0.00
2018-05-29T02:11:44.347Z,0.00
2018-05-29T02:12:44.575Z,0.00
2018-05-29T02:13:44.804Z,0.00
2018-05-29T02:14:45.040Z,0.00
2018-05-29T02:15:45.268Z,0.00
2018-05-29T02:16:45.522Z,0.00
2018-05-29T02:17:45.731Z,0.00
2018-05-29T02:18:45.969Z,0.00
2018-05-29T02:19:46.192Z,0.00
2018-05-29T02:20:46.423Z,0.00
2018-05-29T02:21:46.656Z,0.00
2018-05-29T02:22:46.887Z,0.00
2018-05-29T02:23:47.117Z,0.00
2018-05-29T02:24:47.347Z,4.00
2018-05-29T02:25:47.580Z,4.00
2018-05-29T02:26:47.809Z,4.00
2018-05-29T02:27:48.040Z,0.00
2018-05-29T02:28:48.272Z,0.00
2018-05-29T02:29:48.507Z,4.00
2018-05-29T02:30:48.736Z,4.00
2018-05-29T02:31:48.956Z,4.00
2018-05-29T02:32:49.186Z,0.00
2018-05-29T02:33:49.414Z,4.00
2018-05-29T02:34:49.645Z,4.00
2018-05-29T02:35:49.877Z,4.00
2018-05-29T02:36:50.110Z,8.00
2018-05-29T02:37:50.345Z,4.00
2018-05-29T02:38:50.578Z,4.00
2018-05-29T02:39:50.807Z,4.00
2018-05-29T02:40:51.035Z,8.00
2018-05-29T02:41:51.267Z,8.00
2018-05-29T02:42:51.500Z,12.00
2018-05-29T02:43:51.729Z,12.00
2018-05-29T02:44:51.959Z,16.00
2018-05-29T02:45:52.194Z,16.00
2018-05-29T02:46:52.416Z,20.00
2018-05-29T02:47:52.647Z,16.00
2018-05-29T02:48:52.879Z,24.00
2018-05-29T02:49:53.107Z,24.00
2018-05-29T02:50:53.341Z,28.00
2018-05-29T02:51:53.573Z,32.00
2018-05-29T02:52:53.813Z,36.00
2018-05-29T02:53:54.044Z,40.00
2018-05-29T02:54:54.269Z,44.00
2018-05-29T02:55:54.503Z,48.00
2018-05-29T02:56:54.731Z,56.00
2018-05-29T02:57:54.963Z,64.00
2018-05-29T02:58:55.199Z,68.00
2018-05-29T02:59:55.425Z,80.00
2018-05-29T03:00:55.657Z,84.00
2018-05-29T03:01:55.888Z,96.00
2018-05-29T03:02:56.119Z,108.00
2018-05-29T03:03:56.354Z,120.00
2018-05-29T03:04:56.579Z,128.00
2018-05-29T03:05:56.820Z,140.00
2018-05-29T03:06:57.058Z,156.00
2018-05-29T03:07:57.290Z,172.00
2018-05-29T03:08:57.520Z,188.00
2018-05-29T03:09:57.749Z,204.00
2018-05-29T03:10:57.981Z,220.00
2018-05-29T03:11:58.222Z,240.00
2018-05-29T03:12:58.444Z,260.00
2018-05-29T03:13:58.677Z,280.00
2018-05-29T03:14:58.909Z,304.00
2018-05-29T03:15:59.140Z,324.00
2018-05-29T03:16:59.391Z,344.00
2018-05-29T03:17:59.608Z,368.00
2018-05-29T03:18:59.838Z,388.00
2018-05-29T03:20:00.074Z,424.00
2018-05-29T03:21:00.375Z,456.00
2018-05-29T03:22:00.534Z,492.00
2018-05-29T03:23:00.761Z,528.00
2018-05-29T03:24:00.996Z,568.00
2018-05-29T03:25:01.227Z,604.00
2018-05-29T03:26:01.454Z,644.00
2018-05-29T03:27:01.683Z,688.00
2018-05-29T03:28:01.917Z,732.00
2018-05-29T03:29:02.147Z,776.00
2018-05-29T03:30:02.376Z,824.00
2018-05-29T03:31:02.606Z,876.00
2018-05-29T03:32:02.836Z,928.00
2018-05-29T03:33:03.067Z,980.00
2018-05-29T03:34:03.298Z,1040.00
2018-05-29T03:35:03.532Z,1100.00
2018-05-29T03:36:03.764Z,1164.00
2018-05-29T03:37:03.988Z,1228.00
2018-05-29T03:38:04.220Z,1296.00
2018-05-29T03:39:04.453Z,1368.00
2018-05-29T03:40:04.683Z,1444.00
2018-05-29T03:41:04.922Z,1520.00
2018-05-29T03:42:05.142Z,1596.00
2018-05-29T03:43:05.379Z,1688.00
2018-05-29T03:44:05.604Z,1792.00
2018-05-29T03:45:05.835Z,2016.00
2018-05-29T03:46:06.067Z,2328.00
2018-05-29T03:47:06.302Z,2476.00
2018-05-29T03:48:06.530Z,2600.00
2018-05-29T03:49:06.765Z,2728.00
2018-05-29T03:50:06.997Z,2888.00
2018-05-29T03:51:07.229Z,3080.00
2018-05-29T03:52:07.460Z,3356.00
2018-05-29T03:53:07.691Z,3708.00
2018-05-29T03:54:07.923Z,4080.00
2018-05-29T03:55:08.153Z,4356.00
2018-05-29T03:56:08.379Z,4592.00
2018-05-29T03:57:08.624Z,4928.00
2018-05-29T03:58:08.845Z,5328.00
2018-05-29T03:59:09.071Z,5536.00
2018-05-29T04:00:09.300Z,5648.00
2018-05-29T04:01:09.537Z,5900.00
2018-05-29T04:02:09.762Z,6496.00
2018-05-29T04:03:09.989Z,7104.00
2018-05-29T04:04:10.214Z,7456.00
2018-05-29T04:05:10.441Z,7608.00
2018-05-29T04:06:10.673Z,7692.00
2018-05-29T04:07:10.912Z,7780.00
2018-05-29T04:08:11.143Z,7952.00
2018-05-29T04:09:11.370Z,8276.00
2018-05-29T04:10:11.600Z,8560.00
2018-05-29T04:11:11.837Z,8692.00
2018-05-29T04:12:12.071Z,8732.00
2018-05-29T04:13:12.305Z,8684.00
2018-05-29T04:14:12.537Z,8852.00
2018-05-29T04:15:12.771Z,9172.00
2018-05-29T04:16:13.019Z,9468.00
2018-05-29T04:17:13.239Z,9772.00
2018-05-29T04:18:13.478Z,10208.00
2018-05-29T04:19:13.714Z,10388.00
2018-05-29T04:20:13.947Z,10628.00
2018-05-29T04:21:14.180Z,10960.00
2018-05-29T04:22:14.418Z,11376.00
2018-05-29T04:23:14.651Z,11916.00
2018-05-29T04:24:14.887Z,12512.00
2018-05-29T04:25:15.124Z,12480.00
2018-05-29T04:26:15.359Z,12064.00
2018-05-29T04:27:15.599Z,11740.00
2018-05-29T04:28:15.830Z,11216.00
2018-05-29T04:29:16.066Z,10732.00
2018-05-29T04:30:16.301Z,10812.00
2018-05-29T04:31:16.543Z,11328.00
2018-05-29T04:32:16.774Z,11616.00
2018-05-29T04:33:17.009Z,11936.00
2018-05-29T04:34:17.250Z,12256.00
2018-05-29T04:35:17.480Z,12320.00
2018-05-29T04:36:17.721Z,12512.00
2018-05-29T04:37:17.953Z,12800.00
2018-05-29T04:38:18.189Z,13024.00
2018-05-29T04:39:18.425Z,13024.00
2018-05-29T04:40:18.664Z,12832.00
2018-05-29T04:41:18.902Z,12736.00
2018-05-29T04:42:19.139Z,13312.00
2018-05-29T04:43:19.379Z,13856.00
2018-05-29T04:44:19.604Z,14176.00
2018-05-29T04:45:19.844Z,14048.00
2018-05-29T04:46:20.082Z,13792.00
2018-05-29T04:47:20.316Z,13728.00
2018-05-29T04:48:20.558Z,13920.00
2018-05-29T04:49:20.793Z,13888.00
2018-05-29T04:50:21.059Z,13632.00
2018-05-29T04:51:21.273Z,13312.00
2018-05-29T04:52:21.514Z,13376.00
2018-05-29T04:53:21.750Z,13728.00
2018-05-29T04:54:21.989Z,14208.00
2018-05-29T04:55:22.226Z,14464.00
2018-05-29T04:56:22.470Z,14176.00
2018-05-29T04:57:22.701Z,13984.00
2018-05-29T04:58:22.940Z,14144.00
2018-05-29T04:59:23.179Z,14208.00
2018-05-29T05:00:23.412Z,13856.00
2018-05-29T05:01:23.651Z,13440.00
2018-05-29T05:02:23.893Z,13760.00
2018-05-29T05:03:24.131Z,14272.00
2018-05-29T05:04:24.367Z,14464.00
2018-05-29T05:05:24.605Z,14048.00
2018-05-29T05:06:24.848Z,13888.00
2018-05-29T05:07:25.090Z,13632.00
2018-05-29T05:08:25.327Z,13452.00
2018-05-29T05:09:25.565Z,12652.00
2018-05-29T05:10:25.808Z,12628.00
2018-05-29T05:11:26.050Z,12980.00
2018-05-29T05:12:26.284Z,13280.00
2018-05-29T05:13:26.529Z,13476.00
2018-05-29T05:14:26.758Z,12868.00
2018-05-29T05:15:26.995Z,13668.00
2018-05-29T05:16:27.248Z,13772.00
2018-05-29T05:17:27.476Z,13404.00
2018-05-29T05:18:27.715Z,13228.00
2018-05-29T05:19:27.952Z,13176.00
2018-05-29T05:20:28.195Z,13148.00
2018-05-29T05:21:28.431Z,13184.00
2018-05-29T05:22:28.666Z,13080.00
2018-05-29T05:23:28.908Z,12796.00
2018-05-29T05:24:29.144Z,12792.00
2018-05-29T05:25:29.387Z,12840.00
2018-05-29T05:26:29.627Z,12728.00
2018-05-29T05:27:29.866Z,12600.00
2018-05-29T05:28:30.111Z,12504.00
2018-05-29T05:29:30.351Z,12392.00
2018-05-29T05:30:30.590Z,12312.00
2018-05-29T05:31:30.830Z,12160.00
2018-05-29T05:32:31.076Z,12080.00
2018-05-29T05:33:31.313Z,12112.00
2018-05-29T05:34:31.552Z,12176.00
2018-05-29T05:35:31.792Z,12204.00
2018-05-29T05:36:32.033Z,12164.00
2018-05-29T05:37:32.277Z,11996.00
2018-05-29T05:38:32.564Z,11644.00
2018-05-29T05:39:32.757Z,11380.00
2018-05-29T05:40:32.998Z,11268.00
2018-05-29T05:41:33.236Z,11252.00
2018-05-29T05:42:33.475Z,11128.00
2018-05-29T05:43:33.713Z,10964.00
2018-05-29T05:44:33.960Z,10956.00
2018-05-29T05:45:34.196Z,10996.00
2018-05-29T05:46:34.437Z,10968.00
2018-05-29T05:47:34.677Z,10892.00
2018-05-29T05:48:34.926Z,10744.00
2018-05-29T05:49:35.160Z,10624.00
2018-05-29T05:50:35.399Z,10540.00
2018-05-29T05:51:35.642Z,10416.00
2018-05-29T05:52:35.884Z,10320.00
2018-05-29T05:53:36.127Z,10316.00
2018-05-29T05:54:36.367Z,10360.00
2018-05-29T05:55:36.610Z,10416.00
2018-05-29T05:56:36.851Z,10408.00
2018-05-29T05:57:37.091Z,10384.00
2018-05-29T05:58:37.333Z,10388.00
2018-05-29T05:59:37.574Z,10412.00
2018-05-29T06:00:37.816Z,10464.00
2018-05-29T06:01:38.057Z,10448.00
2018-05-29T06:02:38.299Z,10432.00
2018-05-29T06:03:38.537Z,10480.00
2018-05-29T06:04:38.776Z,10552.00
2018-05-29T06:05:39.028Z,10572.00
2018-05-29T06:06:39.264Z,10556.00
2018-05-29T06:07:39.504Z,10256.00
2018-05-29T06:08:39.749Z,10272.00
2018-05-29T06:09:39.993Z,10308.00
2018-05-29T06:10:40.233Z,10300.00
2018-05-29T06:11:40.474Z,10252.00
2018-05-29T06:12:40.713Z,10332.00
2018-05-29T06:13:40.957Z,10308.00
2018-05-29T06:14:41.204Z,10296.00
2018-05-29T06:15:41.441Z,10348.00
2018-05-29T06:16:41.681Z,10356.00
2018-05-29T06:17:41.924Z,10364.00
2018-05-29T06:18:42.170Z,10388.00
2018-05-29T06:19:42.412Z,10408.00
2018-05-29T06:20:42.651Z,10428.00
2018-05-29T06:21:42.890Z,10448.00
2018-05-29T06:22:43.131Z,10428.00
2018-05-29T06:23:43.375Z,10420.00
2018-05-29T06:24:43.615Z,10416.00
2018-05-29T06:25:43.852Z,10432.00
2018-05-29T06:26:44.093Z,10420.00
2018-05-29T06:27:44.339Z,10388.00
2018-05-29T06:28:44.579Z,10404.00
2018-05-29T06:29:46.388Z,10408.00
2018-05-29T06:30:45.004Z,10416.00
2018-05-29T06:31:45.246Z,10432.00
2018-05-29T06:32:45.528Z,10448.00
2018-05-29T06:33:45.733Z,10488.00
2018-05-29T06:34:45.973Z,10512.00
2018-05-29T06:35:46.208Z,10528.00
2018-05-29T06:36:46.458Z,10552.00
2018-05-29T06:37:46.700Z,10552.00
2018-05-29T06:38:46.991Z,10532.00
2018-05-29T06:39:47.182Z,10552.00
2018-05-29T06:40:47.425Z,10600.00
2018-05-29T06:41:47.663Z,10608.00
2018-05-29T06:42:47.902Z,10572.00
2018-05-29T06:43:48.147Z,10512.00
2018-05-29T06:44:48.413Z,10476.00
2018-05-29T06:45:48.626Z,10504.00
2018-05-29T06:46:48.868Z,10552.00
2018-05-29T06:47:49.101Z,10532.00
2018-05-29T06:48:49.341Z,10524.00
2018-05-29T06:49:49.585Z,10548.00
2018-05-29T06:50:49.828Z,10552.00
2018-05-29T06:51:50.051Z,10544.00
2018-05-29T06:52:50.296Z,10548.00
2018-05-29T06:53:50.536Z,10576.00
2018-05-29T06:54:50.779Z,10608.00
2018-05-29T06:55:51.015Z,10620.00
2018-05-29T06:56:51.254Z,10620.00
2018-05-29T06:57:51.513Z,10596.00
2018-05-29T06:58:51.742Z,10536.00
2018-05-29T06:59:51.980Z,10496.00
2018-05-29T07:00:52.229Z,10468.00
2018-05-29T07:01:52.459Z,10440.00
2018-05-29T07:02:52.704Z,10384.00
2018-05-29T07:03:52.977Z,10372.00
2018-05-29T07:04:53.184Z,10372.00
2018-05-29T07:05:53.424Z,10368.00
2018-05-29T07:06:53.662Z,10384.00
2018-05-29T07:07:53.906Z,10380.00
2018-05-29T07:08:54.153Z,10392.00
2018-05-29T07:09:54.388Z,10404.00
2018-05-29T07:10:54.628Z,10388.00
2018-05-29T07:11:54.869Z,10392.00
2018-05-29T07:12:55.107Z,10380.00
2018-05-29T07:13:55.348Z,10384.00
2018-05-29T07:14:55.590Z,10392.00
2018-05-29T07:15:55.828Z,10392.00
2018-05-29T07:16:56.066Z,10380.00
2018-05-29T07:17:56.314Z,10360.00
2018-05-29T07:18:56.546Z,10344.00
2018-05-29T07:19:56.821Z,10276.00
2018-05-29T07:20:57.026Z,10232.00
2018-05-29T07:21:57.265Z,10192.00
2018-05-29T07:22:57.506Z,10176.00
2018-05-29T07:23:57.746Z,10172.00
2018-05-29T07:24:57.986Z,10172.00
2018-05-29T07:25:58.223Z,10148.00
2018-05-29T07:26:58.468Z,10120.00
2018-05-29T07:27:58.699Z,10100.00
2018-05-29T07:28:58.942Z,10076.00
2018-05-29T07:29:59.192Z,10108.00
2018-05-29T07:30:59.416Z,10124.00
2018-05-29T07:31:59.647Z,10092.00
2018-05-29T07:32:59.885Z,10072.00
2018-05-29T07:34:00.122Z,10044.00
2018-05-29T07:35:00.361Z,10048.00
2018-05-29T07:36:00.602Z,10020.00
2018-05-29T07:37:00.839Z,10008.00
2018-05-29T07:38:01.082Z,10004.00
2018-05-29T07:39:01.315Z,10000.00
2018-05-29T07:40:01.556Z,9956.00
2018-05-29T07:41:01.791Z,9952.00
2018-05-29T07:42:02.029Z,9952.00
2018-05-29T07:43:02.276Z,9940.00
2018-05-29T07:44:02.498Z,9912.00
2018-05-29T07:45:02.746Z,9864.00
2018-05-29T07:46:02.986Z,9856.00
2018-05-29T07:47:03.225Z,9848.00
2018-05-29T07:48:03.464Z,9836.00
2018-05-29T07:49:03.703Z,9832.00
2018-05-29T07:50:03.942Z,9820.00
2018-05-29T07:51:04.176Z,9800.00
2018-05-29T07:52:04.466Z,9796.00
2018-05-29T07:53:04.656Z,9784.00
2018-05-29T07:54:04.896Z,9764.00
2018-05-29T07:55:05.133Z,9752.00
2018-05-29T07:56:05.371Z,9808.00
2018-05-29T07:57:05.612Z,9796.00
2018-05-29T07:58:05.851Z,9780.00
2018-05-29T07:59:06.091Z,9756.00
2018-05-29T08:00:06.351Z,9740.00
2018-05-29T08:01:06.577Z,9704.00
2018-05-29T08:02:06.825Z,9672.00
2018-05-29T08:03:07.061Z,9672.00
2018-05-29T08:04:07.298Z,9628.00
2018-05-29T08:05:07.537Z,9612.00
2018-05-29T08:06:07.777Z,9592.00
2018-05-29T08:07:08.015Z,9576.00
2018-05-29T08:08:08.254Z,9524.00
2018-05-29T08:09:08.491Z,9460.00
2018-05-29T08:10:08.730Z,9436.00
2018-05-29T08:11:08.968Z,9412.00
2018-05-29T08:12:09.204Z,9384.00
2018-05-29T08:13:09.442Z,9340.00
2018-05-29T08:14:09.681Z,9308.00
2018-05-29T08:15:09.919Z,9264.00
2018-05-29T08:16:10.161Z,9244.00
2018-05-29T08:17:10.399Z,9228.00
2018-05-29T08:18:10.649Z,9224.00
2018-05-29T08:19:10.872Z,9176.00
2018-05-29T08:20:11.108Z,9196.00
2018-05-29T08:21:11.344Z,9116.00
2018-05-29T08:22:11.582Z,9112.00
2018-05-29T08:23:11.821Z,9080.00
2018-05-29T08:24:12.056Z,9028.00
2018-05-29T08:25:12.299Z,9016.00
2018-05-29T08:26:12.536Z,9000.00
2018-05-29T08:27:12.777Z,8988.00
2018-05-29T08:28:13.013Z,8848.00
2018-05-29T08:29:13.254Z,8828.00
2018-05-29T08:30:13.490Z,8832.00
2018-05-29T08:31:13.729Z,8808.00
2018-05-29T08:32:13.997Z,8760.00
2018-05-29T08:33:14.208Z,8704.00
2018-05-29T08:34:14.455Z,8680.00
2018-05-29T08:35:14.687Z,8704.00
2018-05-29T08:36:14.928Z,8660.00
2018-05-29T08:37:15.165Z,8616.00
2018-05-29T08:38:15.401Z,8596.00
2018-05-29T08:39:15.640Z,8628.00
2018-05-29T08:40:15.880Z,8600.00
2018-05-29T08:41:16.117Z,8624.00
2018-05-29T08:42:16.359Z,8688.00
2018-05-29T08:43:16.601Z,8684.00
2018-05-29T08:44:16.838Z,8788.00
2018-05-29T08:45:17.084Z,8888.00
2018-05-29T08:46:17.336Z,8916.00
2018-05-29T08:47:17.557Z,8852.00
2018-05-29T08:48:17.796Z,8848.00
2018-05-29T08:49:18.037Z,8872.00
2018-05-29T08:50:18.275Z,8888.00
2018-05-29T08:51:18.516Z,8840.00
2018-05-29T08:52:18.756Z,8840.00
2018-05-29T08:53:18.993Z,8788.00
2018-05-29T08:54:19.233Z,8776.00
2018-05-29T08:55:19.470Z,8776.00
2018-05-29T08:56:19.710Z,8800.00
2018-05-29T08:57:19.987Z,8840.00
2018-05-29T08:58:20.190Z,8856.00
2018-05-29T08:59:20.433Z,8712.00
2018-05-29T09:00:20.671Z,8724.00
2018-05-29T09:01:20.907Z,8792.00
2018-05-29T09:02:21.147Z,8772.00
2018-05-29T09:03:21.392Z,8764.00
2018-05-29T09:04:21.648Z,8748.00
2018-05-29T09:05:21.867Z,8808.00
2018-05-29T09:06:22.111Z,8820.00
2018-05-29T09:07:22.375Z,8780.00
2018-05-29T09:08:22.594Z,8768.00
2018-05-29T09:09:22.822Z,8760.00
2018-05-29T09:10:23.058Z,8764.00
2018-05-29T09:11:23.294Z,8760.00
2018-05-29T09:12:23.534Z,8732.00
2018-05-29T09:13:23.773Z,8720.00
2018-05-29T09:14:24.012Z,8704.00
2018-05-29T09:15:24.251Z,8728.00
2018-05-29T09:16:24.491Z,8744.00
2018-05-29T09:17:24.732Z,8712.00
2018-05-29T09:18:24.970Z,8712.00
2018-05-29T09:19:25.210Z,8744.00
2018-05-29T09:20:25.453Z,8756.00
2018-05-29T09:21:25.693Z,8760.00
2018-05-29T09:22:25.930Z,8748.00
2018-05-29T09:23:26.170Z,8704.00
2018-05-29T09:24:26.406Z,8684.00
2018-05-29T09:25:26.647Z,8680.00
2018-05-29T09:26:26.887Z,8720.00
2018-05-29T09:27:27.123Z,8704.00
2018-05-29T09:28:27.359Z,8676.00
2018-05-29T09:29:27.602Z,8624.00
2018-05-29T09:30:27.864Z,8592.00
2018-05-29T09:31:28.098Z,8588.00
2018-05-29T09:32:28.336Z,8564.00
2018-05-29T09:33:28.574Z,8504.00
2018-05-29T09:34:28.812Z,8492.00
2018-05-29T09:35:29.056Z,8448.00
2018-05-29T09:36:29.294Z,8420.00
2018-05-29T09:37:29.605Z,8424.00
2018-05-29T09:38:29.775Z,8440.00
2018-05-29T09:39:30.015Z,8424.00
2018-05-29T09:40:30.254Z,8400.00
2018-05-29T09:41:30.497Z,8352.00
2018-05-29T09:42:30.729Z,8324.00
2018-05-29T09:43:30.973Z,8304.00
2018-05-29T09:44:31.209Z,8280.00
2018-05-29T09:45:31.450Z,8288.00
2018-05-29T09:46:31.690Z,8260.00
2018-05-29T09:47:31.931Z,8264.00
2018-05-29T09:48:32.171Z,8208.00
2018-05-29T09:49:32.411Z,8184.00
2018-05-29T09:50:32.651Z,8180.00
2018-05-29T09:51:32.894Z,8036.00
2018-05-29T09:52:33.133Z,8112.00
2018-05-29T09:53:33.372Z,8092.00
2018-05-29T09:54:33.672Z,8096.00
2018-05-29T09:55:33.851Z,8120.00
2018-05-29T09:56:34.087Z,8136.00
2018-05-29T09:57:34.329Z,8080.00
2018-05-29T09:58:34.567Z,8112.00
2018-05-29T09:59:34.808Z,8076.00
2018-05-29T10:00:35.049Z,8080.00
2018-05-29T10:01:35.291Z,8132.00
2018-05-29T10:02:35.534Z,8136.00
2018-05-29T10:03:35.767Z,8100.00
2018-05-29T10:04:36.006Z,8096.00
2018-05-29T10:05:36.247Z,8128.00
2018-05-29T10:06:36.484Z,8140.00
2018-05-29T10:07:36.724Z,8144.00
2018-05-29T10:08:36.961Z,8164.00
2018-05-29T10:09:37.201Z,8172.00
2018-05-29T10:10:37.447Z,8204.00
2018-05-29T10:11:37.681Z,8248.00
2018-05-29T10:12:37.921Z,8212.00
2018-05-29T10:13:38.162Z,8248.00
2018-05-29T10:14:38.407Z,8348.00
2018-05-29T10:15:38.639Z,8312.00
2018-05-29T10:16:38.878Z,8368.00
2018-05-29T10:17:39.118Z,8360.00
2018-05-29T10:18:39.360Z,8316.00
2018-05-29T10:19:39.596Z,8280.00
2018-05-29T10:20:39.837Z,8324.00
2018-05-29T10:21:40.083Z,8244.00
2018-05-29T10:22:40.317Z,8124.00
2018-05-29T10:23:40.552Z,8140.00
2018-05-29T10:24:40.841Z,8128.00
2018-05-29T10:25:41.035Z,8092.00
2018-05-29T10:26:41.272Z,8236.00
2018-05-29T10:27:41.510Z,8312.00
2018-05-29T10:28:41.749Z,8384.00
2018-05-29T10:29:41.989Z,8356.00
2018-05-29T10:30:42.229Z,8408.00
2018-05-29T10:31:42.468Z,8484.00
2018-05-29T10:32:42.707Z,8492.00
2018-05-29T10:33:42.948Z,8504.00
2018-05-29T10:34:43.186Z,8444.00
2018-05-29T10:35:43.424Z,8408.00
2018-05-29T10:36:43.663Z,8424.00
2018-05-29T10:37:43.901Z,8416.00
2018-05-29T10:38:44.140Z,8340.00
2018-05-29T10:39:44.380Z,8248.00
2018-05-29T10:40:44.620Z,8216.00
2018-05-29T10:41:44.858Z,8200.00
2018-05-29T10:42:45.099Z,8136.00
2018-05-29T10:43:45.336Z,8100.00
2018-05-29T10:44:45.575Z,8116.00
2018-05-29T10:45:45.816Z,8140.00
2018-05-29T10:46:46.055Z,8196.00
2018-05-29T10:47:46.295Z,8152.00
2018-05-29T10:48:46.534Z,8096.00
2018-05-29T10:49:46.774Z,8116.00
2018-05-29T10:50:47.012Z,8060.00
2018-05-29T10:51:47.253Z,8100.00
2018-05-29T10:52:47.494Z,8104.00
2018-05-29T10:53:47.734Z,8088.00
2018-05-29T10:54:48.005Z,8056.00
2018-05-29T10:55:48.210Z,8264.00
2018-05-29T10:56:48.450Z,8324.00
2018-05-29T10:57:48.699Z,8332.00
2018-05-29T10:58:48.930Z,8404.00
2018-05-29T10:59:49.173Z,8520.00
2018-05-29T11:00:49.413Z,8636.00
2018-05-29T11:01:49.650Z,8868.00
2018-05-29T11:02:49.891Z,9084.00
2018-05-29T11:03:50.132Z,9004.00
2018-05-29T11:04:50.368Z,8768.00
2018-05-29T11:05:50.609Z,8732.00
2018-05-29T11:06:50.891Z,8792.00
2018-05-29T11:07:51.106Z,8932.00
2018-05-29T11:08:51.348Z,9048.00
2018-05-29T11:09:51.581Z,9088.00
2018-05-29T11:10:51.819Z,9068.00
2018-05-29T11:11:52.065Z,8924.00
2018-05-29T11:12:52.304Z,8868.00
2018-05-29T11:13:52.542Z,8848.00
2018-05-29T11:14:52.780Z,8900.00
2018-05-29T11:15:53.020Z,8912.00
2018-05-29T11:16:53.250Z,8900.00
2018-05-29T11:17:53.501Z,8816.00
2018-05-29T11:18:53.742Z,8852.00
2018-05-29T11:19:53.980Z,8772.00
2018-05-29T11:20:54.221Z,8688.00
2018-05-29T11:21:54.463Z,8824.00
2018-05-29T11:22:54.704Z,8544.00
2018-05-29T11:23:54.943Z,7252.00
2018-05-29T11:24:55.181Z,6592.00
2018-05-29T11:25:55.434Z,7264.00
2018-05-29T11:26:55.669Z,8836.00
2018-05-29T11:27:55.912Z,8940.00
2018-05-29T11:28:56.151Z,8800.00
2018-05-29T11:29:56.392Z,8740.00
2018-05-29T11:30:56.634Z,8760.00
2018-05-29T11:31:56.875Z,8824.00
2018-05-29T11:32:57.115Z,8888.00
2018-05-29T11:33:57.358Z,8972.00
2018-05-29T11:34:57.603Z,9024.00
2018-05-29T11:35:57.837Z,9048.00
2018-05-29T11:36:58.078Z,9096.00
2018-05-29T11:37:58.317Z,9152.00
2018-05-29T11:38:58.556Z,9324.00
2018-05-29T11:39:58.795Z,9376.00
2018-05-29T11:40:59.037Z,9564.00
2018-05-29T11:41:59.277Z,9664.00
2018-05-29T11:42:59.515Z,9656.00
2018-05-29T11:43:59.759Z,9524.00
2018-05-29T11:45:00.001Z,9244.00
2018-05-29T11:46:00.246Z,9372.00
2018-05-29T11:47:00.483Z,9404.00
2018-05-29T11:48:00.721Z,9364.00
2018-05-29T11:49:00.962Z,9256.00
2018-05-29T11:50:01.203Z,9216.00
2018-05-29T11:51:01.445Z,9016.00
2018-05-29T11:52:01.698Z,8952.00
2018-05-29T11:53:01.944Z,8640.00
2018-05-29T11:54:02.186Z,8524.00
2018-05-29T11:55:02.428Z,8976.00
2018-05-29T11:56:02.675Z,9232.00
2018-05-29T11:57:02.925Z,9008.00
2018-05-29T11:58:03.166Z,9020.00
2018-05-29T11:59:03.405Z,9224.00
2018-05-29T12:00:03.659Z,9508.00
2018-05-29T12:01:03.903Z,9596.00
2018-05-29T12:02:04.168Z,9908.00
2018-05-29T12:03:04.416Z,10240.00
2018-05-29T12:04:04.661Z,10532.00
2018-05-29T12:05:04.916Z,10560.00
2018-05-29T12:06:05.163Z,10540.00
2018-05-29T12:07:05.402Z,10408.00
2018-05-29T12:08:05.643Z,10300.00
2018-05-29T12:09:05.903Z,10112.00
2018-05-29T12:10:06.143Z,10052.00
2018-05-29T12:11:06.400Z,8560.00
2018-05-29T12:12:06.639Z,8324.00
2018-05-29T12:13:06.865Z,8092.00
2018-05-29T12:14:07.102Z,9080.00
2018-05-29T12:15:07.346Z,9656.00
2018-05-29T12:16:07.586Z,9748.00
2018-05-29T12:17:07.825Z,9904.00
2018-05-29T12:18:08.072Z,10148.00
2018-05-29T12:19:08.312Z,9020.00